Time,TemperatureF,DewpointF,PressureIn,WindDirection,WindDirectionDegrees,WindSpeedMPH,WindSpeedGustMPH,Humidity,HourlyPrecipIn,Conditions,Clouds,dailyrainin,SoftwareType,DateUTC
2013-01-23 00:10:00,6.0,-3.9,30.20,WSW,252,3.0,3.0,63,0.00,,,0.00,Wunderground v.1.15,2013-01-23 05:10:00,
2013-01-23 00:28:00,5.9,-4.0,30.20,WSW,250,3.0,8.0,64,0.00,,,0.00,weatherlink.com 1.10,2013-01-23 05:28:00,
2013-01-23 00:40:00,5.8,-3.4,30.19,West,270,3.0,3.0,65,0.00,,,0.00,Wunderground v.1.15,2013-01-23 05:40:00,
2013-01-23 00:43:00,5.8,-4.0,30.19,WSW,253,3.0,7.0,64,0.00,,,0.00,weatherlink.com 1.10,2013-01-23 05:43:00,
2013-01-23 00:58:00,5.7,-3.0,30.19,West,271,4.0,7.0,66,0.00,,,0.00,weatherlink.com 1.10,2013-01-23 05:58:00,
2013-01-23 01:10:00,5.7,-3.5,30.19,WSW,249,3.0,3.0,65,0.00,,,0.00,Wunderground v.1.15,2013-01-23 06:10:00,
2013-01-23 01:28:00,5.7,-4.0,30.19,West,279,3.0,7.0,65,0.00,,,0.00,weatherlink.com 1.10,2013-01-23 06:28:00,
2013-01-23 01:40:00,5.6,-3.6,30.19,WSW,244,3.0,3.0,65,0.00,,,0.00,Wunderground v.1.15,2013-01-23 06:40:00,
2013-01-23 01:58:00,5.7,-4.0,30.20,West,270,3.0,8.0,64,0.00,,,0.00,weatherlink.com 1.10,2013-01-23 06:58:00,
2013-01-23 02:10:00,6.0,-3.9,30.20,WNW,288,4.0,4.0,63,0.00,,,0.00,Wunderground v.1.15,2013-01-23 07:10:00,
2013-01-23 02:28:00,6.2,-4.0,30.20,West,273,8.0,12.0,62,0.00,,,0.00,weatherlink.com 1.10,2013-01-23 07:28:00,
2013-01-23 02:40:00,6.2,-3.7,30.20,WNW,302,5.0,6.0,63,0.00,,,0.00,Wunderground v.1.15,2013-01-23 07:40:00,
2013-01-23 02:59:00,6.0,-4.0,30.21,SW,228,3.0,9.0,64,0.00,,,0.00,weatherlink.com 1.10,2013-01-23 07:59:00,
2013-01-23 03:10:00,6.1,-3.5,30.21,West,275,5.0,5.0,64,0.00,,,0.00,Wunderground v.1.15,2013-01-23 08:10:00,
2013-01-23 03:29:00,6.0,-4.0,30.21,WNW,284,2.0,9.0,65,0.00,,,0.00,weatherlink.com 1.10,2013-01-23 08:29:00,
2013-01-23 03:40:00,5.9,-3.0,30.21,West,281,4.0,4.0,66,0.00,,,0.00,Wunderground v.1.15,2013-01-23 08:40:00,
2013-01-23 03:59:00,5.8,-3.0,30.21,West,281,3.0,8.0,67,0.00,,,0.00,weatherlink.com 1.10,2013-01-23 08:59:00,
2013-01-23 04:10:00,5.9,-2.4,30.21,WSW,239,3.0,3.0,68,0.00,,,0.00,Wunderground v.1.15,2013-01-23 09:10:00,
2013-01-23 04:29:00,5.9,-2.0,30.21,West,268,2.0,6.0,69,0.00,,,0.00,weatherlink.com 1.10,2013-01-23 09:29:00,
2013-01-23 04:40:00,6.0,-1.7,30.22,WSW,251,2.0,3.0,70,0.00,,,0.00,Wunderground v.1.15,2013-01-23 09:40:00,
2013-01-23 04:59:00,6.0,-2.0,30.22,West,277,1.0,7.0,70,0.00,,,0.00,weatherlink.com 1.10,2013-01-23 09:59:00,
2013-01-23 05:10:00,6.2,-1.2,30.22,West,261,3.0,3.0,71,0.00,,,0.00,Wunderground v.1.15,2013-01-23 10:10:00,
2013-01-23 05:15:00,6.2,-1.0,30.22,WSW,257,2.0,6.0,71,0.00,,,0.00,weatherlink.com 1.10,2013-01-23 10:15:00,
2013-01-23 05:30:00,6.1,-1.0,30.22,West,259,2.0,7.0,72,0.00,,,0.00,weatherlink.com 1.10,2013-01-23 10:30:00,
2013-01-23 05:40:00,6.0,-1.1,30.22,SW,227,3.0,3.0,72,0.00,,,0.00,Wunderground v.1.15,2013-01-23 10:40:00,
2013-01-23 05:45:00,6.1,-1.0,30.22,West,271,4.0,7.0,73,0.00,,,0.00,weatherlink.com 1.10,2013-01-23 10:45:00,
2013-01-23 06:00:00,5.9,0.0,30.23,WSW,249,3.0,8.0,75,0.00,,,0.00,weatherlink.com 1.10,2013-01-23 11:00:00,
2013-01-23 06:10:00,5.8,-0.1,30.23,West,277,2.0,2.0,76,0.00,,,0.00,Wunderground v.1.15,2013-01-23 11:10:00,
2013-01-23 06:15:00,5.9,0.0,30.23,WSW,254,3.0,8.0,76,0.00,,,0.00,weatherlink.com 1.10,2013-01-23 11:15:00,
2013-01-23 06:30:00,5.8,0.0,30.23,SW,223,1.0,4.0,77,0.00,,,0.00,weatherlink.com 1.10,2013-01-23 11:30:00,
2013-01-23 06:40:00,5.9,0.5,30.23,West,267,2.0,2.0,78,0.00,,,0.00,Wunderground v.1.15,2013-01-23 11:40:00,
2013-01-23 06:45:00,5.8,0.0,30.23,WNW,295,2.0,4.0,78,0.00,,,0.00,weatherlink.com 1.10,2013-01-23 11:45:00,
2013-01-23 07:00:00,5.8,1.0,30.23,WNW,286,1.0,7.0,79,0.00,,,0.00,weatherlink.com 1.10,2013-01-23 12:00:00,
2013-01-23 07:10:00,5.7,0.9,30.23,WSW,252,1.0,1.0,80,0.00,,,0.00,Wunderground v.1.15,2013-01-23 12:10:00,
2013-01-23 07:15:00,5.6,1.0,30.23,WSW,252,0.0,3.0,80,0.00,,,0.00,weatherlink.com 1.10,2013-01-23 12:15:00,
2013-01-23 07:30:00,5.4,1.0,30.23,WSW,252,0.0,1.0,81,0.00,,,0.00,weatherlink.com 1.10,2013-01-23 12:30:00,
2013-01-23 07:40:00,5.4,1.1,30.24,WSW,252,0.0,0.0,82,0.00,,,0.00,Wunderground v.1.15,2013-01-23 12:40:00,
2013-01-23 07:46:00,5.4,1.0,30.23,WSW,252,1.0,2.0,83,0.00,,,0.00,weatherlink.com 1.10,2013-01-23 12:46:00,
2013-01-23 08:01:00,5.6,2.0,30.24,WSW,257,1.0,3.0,83,0.00,,,0.00,weatherlink.com 1.10,2013-01-23 13:01:00,
2013-01-23 08:10:00,6.0,1.9,30.24,WSW,254,1.0,1.0,83,0.00,,,0.00,Wunderground v.1.15,2013-01-23 13:10:00,
2013-01-23 08:16:00,6.2,2.0,30.24,West,260,2.0,3.0,83,0.00,,,0.00,weatherlink.com 1.10,2013-01-23 13:16:00,
2013-01-23 08:31:00,6.9,3.0,30.24,WSW,237,1.0,5.0,82,0.00,,,0.00,weatherlink.com 1.10,2013-01-23 13:31:00,
2013-01-23 08:40:00,7.2,2.9,30.24,WSW,241,3.0,3.0,82,0.00,,,0.00,Wunderground v.1.15,2013-01-23 13:40:00,
2013-01-23 08:46:00,7.4,3.0,30.24,WSW,252,2.0,5.0,81,0.00,,,0.00,weatherlink.com 1.10,2013-01-23 13:46:00,
2013-01-23 09:01:00,7.8,3.0,30.25,SW,225,4.0,5.0,80,0.00,,,0.00,weatherlink.com 1.10,2013-01-23 14:01:00,
2013-01-23 09:10:00,8.3,3.4,30.25,West,261,3.0,3.0,80,0.00,,,0.00,Wunderground v.1.15,2013-01-23 14:10:00,
2013-01-23 09:16:00,8.6,4.0,30.26,WNW,284,4.0,7.0,80,0.00,,,0.00,weatherlink.com 1.10,2013-01-23 14:16:00,
2013-01-23 09:31:00,8.4,3.0,30.26,SW,220,3.0,7.0,80,0.00,,,0.00,weatherlink.com 1.10,2013-01-23 14:31:00,
2013-01-23 09:40:00,8.8,3.6,30.26,WSW,250,3.0,3.0,79,0.00,,,0.00,Wunderground v.1.15,2013-01-23 14:40:00,
2013-01-23 09:46:00,9.2,4.0,30.27,WNW,294,3.0,7.0,79,0.00,,,0.00,weatherlink.com 1.10,2013-01-23 14:46:00,
2013-01-23 10:01:00,9.4,2.0,30.27,NW,310,1.0,9.0,72,0.00,,,0.00,weatherlink.com 1.10,2013-01-23 15:01:00,
2013-01-23 10:10:00,9.5,2.3,30.26,NW,315,4.0,4.0,72,0.00,,,0.00,Wunderground v.1.15,2013-01-23 15:10:00,
2013-01-23 10:17:00,10.0,3.0,30.26,SW,217,5.0,9.0,72,0.00,,,0.00,weatherlink.com 1.10,2013-01-23 15:17:00,
2013-01-23 10:32:00,11.2,3.0,30.26,WNW,286,3.0,10.0,70,0.00,,,0.00,weatherlink.com 1.10,2013-01-23 15:32:00,
2013-01-23 10:40:00,10.8,2.3,30.26,NW,309,5.0,6.0,68,0.00,,,0.00,Wunderground v.1.15,2013-01-23 15:40:00,
2013-01-23 10:47:00,11.3,3.0,30.26,WNW,293,4.0,9.0,69,0.00,,,0.00,weatherlink.com 1.10,2013-01-23 15:47:00,
2013-01-23 11:02:00,11.0,2.0,30.26,WNW,298,6.0,11.0,67,0.00,,,0.00,weatherlink.com 1.10,2013-01-23 16:02:00,
2013-01-23 11:10:00,10.8,2.0,30.25,WNW,282,5.0,5.0,67,0.00,,,0.00,Wunderground v.1.15,2013-01-23 16:10:00,
2013-01-23 11:17:00,10.8,2.0,30.25,SW,222,3.0,8.0,68,0.00,,,0.00,weatherlink.com 1.10,2013-01-23 16:17:00,
2013-01-23 11:32:00,10.7,3.0,30.24,WNW,300,7.0,11.0,71,0.00,,,0.00,weatherlink.com 1.10,2013-01-23 16:32:00,
2013-01-23 11:40:00,10.6,3.9,30.24,WNW,299,5.0,5.0,74,0.00,,,0.00,Wunderground v.1.15,2013-01-23 16:40:00,
2013-01-23 11:47:00,10.7,4.0,30.24,West,277,2.0,8.0,73,0.00,,,0.00,weatherlink.com 1.10,2013-01-23 16:47:00,
2013-01-23 12:02:00,10.7,4.0,30.23,NW,306,2.0,6.0,75,0.00,,,0.00,weatherlink.com 1.10,2013-01-23 17:02:00,
2013-01-23 12:10:00,11.1,4.1,30.23,West,275,3.0,3.0,73,0.00,,,0.00,Wunderground v.1.15,2013-01-23 17:10:00,
2013-01-23 12:17:00,11.4,3.0,30.23,WNW,299,8.0,10.0,69,0.00,,,0.00,weatherlink.com 1.10,2013-01-23 17:17:00,
2013-01-23 12:32:00,12.4,3.0,30.22,WSW,242,4.0,9.0,66,0.00,,,0.00,weatherlink.com 1.10,2013-01-23 17:32:00,
2013-01-23 12:40:00,12.4,2.2,30.21,WNW,299,4.0,4.0,63,0.00,,,0.00,Wunderground v.1.15,2013-01-23 17:40:00,
2013-01-23 12:47:00,12.5,2.0,30.21,WSW,239,5.0,9.0,62,0.00,,,0.00,weatherlink.com 1.10,2013-01-23 17:47:00,
2013-01-23 13:02:00,12.1,2.0,30.20,NW,320,4.0,9.0,65,0.00,,,0.00,weatherlink.com 1.10,2013-01-23 18:02:00,
2013-01-23 13:10:00,12.3,3.1,30.20,SSW,206,4.0,4.0,66,0.00,,,0.00,Wunderground v.1.15,2013-01-23 18:10:00,
2013-01-23 13:18:00,12.5,3.0,30.20,NW,313,4.0,6.0,66,0.00,,,0.00,weatherlink.com 1.10,2013-01-23 18:18:00,
2013-01-23 13:34:00,12.4,2.0,30.19,NW,319,5.0,8.0,64,0.00,,,0.00,weatherlink.com 1.10,2013-01-23 18:34:00,
2013-01-23 13:40:00,12.2,3.0,30.19,WNW,300,4.0,4.0,66,0.00,,,0.00,Wunderground v.1.15,2013-01-23 18:40:00,
2013-01-23 13:48:00,12.4,3.0,30.19,NW,313,2.0,5.0,65,0.00,,,0.00,weatherlink.com 1.10,2013-01-23 18:48:00,
2013-01-23 14:04:00,12.2,3.0,30.19,NNW,327,2.0,4.0,66,0.00,,,0.00,weatherlink.com 1.10,2013-01-23 19:04:00,
2013-01-23 14:10:00,12.1,3.2,30.19,WNW,293,2.0,2.0,67,0.00,,,0.00,Wunderground v.1.15,2013-01-23 19:10:00,
2013-01-23 14:18:00,12.4,4.0,30.19,WNW,290,1.0,5.0,68,0.00,,,0.00,weatherlink.com 1.10,2013-01-23 19:18:00,
2013-01-23 14:34:00,12.8,4.0,30.19,SW,228,1.0,5.0,67,0.00,,,0.00,weatherlink.com 1.10,2013-01-23 19:34:00,
2013-01-23 14:40:00,12.8,3.6,30.19,WSW,254,2.0,2.0,66,0.00,,,0.00,Wunderground v.1.15,2013-01-23 19:40:00,
2013-01-23 14:48:00,12.7,6.0,30.19,SW,217,1.0,7.0,73,0.00,,,0.00,weatherlink.com 1.10,2013-01-23 19:48:00,
2013-01-23 15:04:00,12.0,6.0,30.19,WSW,246,2.0,7.0,78,0.00,,,0.00,weatherlink.com 1.10,2013-01-23 20:04:00,
2013-01-23 15:10:00,11.9,6.4,30.19,WSW,240,2.0,2.0,78,0.00,,,0.00,Wunderground v.1.15,2013-01-23 20:10:00,
2013-01-23 15:19:00,12.5,6.0,30.18,SW,234,1.0,7.0,76,0.00,,,0.00,weatherlink.com 1.10,2013-01-23 20:19:00,
2013-01-23 15:34:00,12.9,5.0,30.18,SW,234,4.0,9.0,70,0.00,,,0.00,weatherlink.com 1.10,2013-01-23 20:34:00,
2013-01-23 15:40:00,13.0,5.4,30.18,West,266,3.0,3.0,71,0.00,,,0.00,Wunderground v.1.15,2013-01-23 20:40:00,
2013-01-23 15:49:00,13.1,5.0,30.18,WSW,246,1.0,7.0,69,0.00,,,0.00,weatherlink.com 1.10,2013-01-23 20:49:00,
2013-01-23 16:04:00,13.0,4.0,30.18,SSW,201,2.0,7.0,67,0.00,,,0.00,weatherlink.com 1.10,2013-01-23 21:04:00,
2013-01-23 16:10:00,13.0,4.4,30.18,SW,215,3.0,3.0,68,0.00,,,0.00,Wunderground v.1.15,2013-01-23 21:10:00,
2013-01-23 16:19:00,13.1,5.0,30.18,West,266,3.0,6.0,69,0.00,,,0.00,weatherlink.com 1.10,2013-01-23 21:19:00,
2013-01-23 16:34:00,12.8,5.0,30.18,West,261,1.0,5.0,70,0.00,,,0.00,weatherlink.com 1.10,2013-01-23 21:34:00,
2013-01-23 16:40:00,12.8,4.9,30.18,WSW,248,2.0,2.0,70,0.00,,,0.00,Wunderground v.1.15,2013-01-23 21:40:00,
2013-01-23 16:49:00,12.6,4.0,30.18,SW,236,3.0,8.0,69,0.00,,,0.00,weatherlink.com 1.10,2013-01-23 21:49:00,
2013-01-23 17:04:00,12.5,4.0,30.18,SW,215,1.0,5.0,69,0.00,,,0.00,weatherlink.com 1.10,2013-01-23 22:04:00,
2013-01-23 17:10:00,12.5,4.3,30.17,SW,217,2.0,2.0,69,0.00,,,0.00,Wunderground v.1.15,2013-01-23 22:10:00,
2013-01-23 17:19:00,12.6,4.0,30.17,SSW,209,0.0,4.0,68,0.00,,,0.00,weatherlink.com 1.10,2013-01-23 22:19:00,
2013-01-23 17:34:00,12.4,5.0,30.17,SSW,213,1.0,5.0,72,0.00,,,0.00,weatherlink.com 1.10,2013-01-23 22:34:00,
2013-01-23 17:40:00,12.2,5.5,30.17,West,265,2.0,3.0,74,0.00,,,0.00,Wunderground v.1.15,2013-01-23 22:40:00,
2013-01-23 17:49:00,12.0,5.0,30.17,South,186,0.0,5.0,74,0.00,,,0.00,weatherlink.com 1.10,2013-01-23 22:49:00,
2013-01-23 18:05:00,11.9,5.0,30.17,SW,222,0.0,6.0,75,0.00,,,0.00,weatherlink.com 1.10,2013-01-23 23:05:00,
2013-01-23 18:20:00,11.8,6.0,30.17,SSW,198,2.0,4.0,76,0.00,,,0.00,weatherlink.com 1.10,2013-01-23 23:20:00,
2013-01-23 18:35:00,11.8,7.0,30.17,SW,223,3.0,6.0,80,0.00,,,0.00,weatherlink.com 1.10,2013-01-23 23:35:00,
2013-01-23 18:50:00,11.4,6.0,30.16,SW,221,0.0,6.0,79,0.00,,,0.00,weatherlink.com 1.10,2013-01-23 23:50:00,
2013-01-23 19:05:00,11.4,7.0,30.16,SW,232,4.0,5.0,82,0.00,,,0.00,weatherlink.com 1.10,2013-01-24 00:05:00,
2013-01-23 19:20:00,11.7,8.0,30.16,South,172,2.0,7.0,83,0.00,,,0.00,weatherlink.com 1.10,2013-01-24 00:20:00,
2013-01-23 19:35:00,11.7,8.0,30.15,SSW,200,4.0,8.0,83,0.00,,,0.00,weatherlink.com 1.10,2013-01-24 00:35:00,
2013-01-23 19:50:00,11.6,7.0,30.15,SSE,163,3.0,6.0,83,0.00,,,0.00,weatherlink.com 1.10,2013-01-24 00:50:00,
2013-01-23 20:05:00,11.4,7.0,30.15,SSW,201,2.0,6.0,82,0.00,,,0.00,weatherlink.com 1.10,2013-01-24 01:05:00,
2013-01-23 20:20:00,11.4,7.0,30.15,South,177,1.0,5.0,81,0.00,,,0.00,weatherlink.com 1.10,2013-01-24 01:20:00,
2013-01-23 20:36:00,11.3,6.0,30.15,SW,224,0.0,6.0,79,0.00,,,0.00,weatherlink.com 1.10,2013-01-24 01:36:00,
2013-01-23 20:51:00,11.2,6.0,30.14,SSW,206,3.0,5.0,79,0.00,,,0.00,weatherlink.com 1.10,2013-01-24 01:51:00,
2013-01-23 21:06:00,11.1,6.0,30.14,SSW,192,0.0,4.0,79,0.00,,,0.00,weatherlink.com 1.10,2013-01-24 02:06:00,
2013-01-23 21:21:00,11.2,6.0,30.15,SW,234,4.0,5.0,79,0.00,,,0.00,weatherlink.com 1.10,2013-01-24 02:21:00,
2013-01-23 21:36:00,11.3,6.0,30.15,SSW,197,0.0,5.0,78,0.00,,,0.00,weatherlink.com 1.10,2013-01-24 02:36:00,
2013-01-23 21:51:00,11.3,6.0,30.15,SW,224,3.0,6.0,78,0.00,,,0.00,weatherlink.com 1.10,2013-01-24 02:51:00,
2013-01-23 22:06:00,11.3,6.0,30.15,SW,221,2.0,7.0,79,0.00,,,0.00,weatherlink.com 1.10,2013-01-24 03:06:00,
2013-01-23 22:21:00,11.4,6.0,30.15,SSW,209,1.0,6.0,80,0.00,,,0.00,weatherlink.com 1.10,2013-01-24 03:21:00,
2013-01-23 22:36:00,11.3,7.0,30.15,SSW,192,2.0,8.0,81,0.00,,,0.00,weatherlink.com 1.10,2013-01-24 03:36:00,
2013-01-23 22:52:00,11.2,6.0,30.15,SSW,211,0.0,8.0,81,0.00,,,0.00,weatherlink.com 1.10,2013-01-24 03:52:00,
2013-01-23 23:06:00,11.1,6.0,30.15,SSW,196,1.0,6.0,81,0.00,,,0.00,weatherlink.com 1.10,2013-01-24 04:06:00,
2013-01-23 23:22:00,10.9,6.0,30.15,SSW,196,0.0,6.0,81,0.00,,,0.00,weatherlink.com 1.10,2013-01-24 04:22:00,
2013-01-23 23:36:00,10.8,6.0,30.15,South,182,2.0,6.0,82,0.00,,,0.00,weatherlink.com 1.10,2013-01-24 04:36:00,
2013-01-23 23:52:00,10.8,7.0,30.14,SSW,193,3.0,6.0,83,0.00,,,0.00,weatherlink.com 1.10,2013-01-24 04:52:00,